AirNav   ProFlight Series 2 Aviation Headset
 
 1078 users online  

58MO Mercy Hospital Jefferson Heliport
Crystal City, Missouri, USA

GOING TO CRYSTAL CITY?


FAA INFORMATION EFFECTIVE 16 JULY 2020

Location

FAA Identifier: 58MO
Lat/Long: 38-11-44.0100N 090-23-36.1800W
38-11.733500N 090-23.603000W
38.1955583,-90.3933833
(estimated)
Elevation: 435 ft. / 133 m (estimated)
Variation: 02E (1985)
From city: 1 mile S of CRYSTAL CITY, MO
Time zone: UTC -5 (UTC -6 during Standard Time)
Zip code: 63028

Heliport Operations

Heliport use: Private use, MEDICAL.
Activation date: 07/1989
Control tower: no
ARTCC: KANSAS CITY CENTER
FSS: SAINT LOUIS FLIGHT SERVICE STATION
Attendance: CONTINUOUS
Wind indicator: yes
Segmented circle: yes

Nearby radio navigation aids

VOR radial/distance  VOR name  Freq  Var
FAMr345/32.2FARMINGTON VORTAC115.7001E
TOYr210/39.5TROY VORTAC116.0004E

Heliport Services

Runway Information

Helipad H1

Dimensions: 60 x 60 ft. / 18 x 18 m
Surface: concrete
Latitude: 38-11.733500N
Longitude: 090-23.603000W
Elevation: 435.0 ft.
Traffic pattern: leftleft

Heliport Ownership and Management from official FAA records

Ownership: Privately-owned
Owner: MERCY HOSPITAL JEFFERSON
HWY 61 SOUTH
CRYSTAL CITY, MO 63019
Phone 314-933-1000
Manager: JOSEPH COPUS
1400 US HIGHWAY 61
CRYSTAL CITY, MO 63019
Phone 314-933-1000
SENIOR MANAGER OF FACILITIES.

Heliport Operational Statistics

Aircraft based on the field: 1
Helicopters: 1
    

Additional Remarks

A52-H1 70' BLDG 75' NORTH; 30' TREES 100' EAST & SOUTH.
FOR CD CTC ST LOUIS APCH AT 314-890-1018.

Instrument Procedures

There are no published instrument procedures at 58MO.

Some nearby airports with instrument procedures:

KFES - Festus Memorial Airport (0 nm E)
8WC - Washington County Airport (23 nm SW)
KCPS - St Louis Downtown Airport (25 nm NE)
KFAM - Farmington Regional Airport (26 nm S)
KSUS - Spirit of St Louis Airport (31 nm NW)
 
Loc | Ops | Rwys | IFR | FBO | Links
Com | Nav | Svcs | Stats | Notes
Area around 58MO (Mercy Hospital Jefferson Heliport)
 
Road maps at: MapQuest Bing Google
 
Aerial photo
No photo
 
Sectional chart

 
Airport distance calculator
Flying to Mercy Hospital Jefferson Heliport? Find the distance to fly.

From to 58MO

Sunrise and sunset
Times for 12-Aug-2020
 Local
(UTC-5)
 Zulu
(UTC)
Morning civil twilight05:4710:47
Sunrise06:1611:16
Sunset19:5700:57
Evening civil twilight20:2601:26

Current date and time
Zulu (UTC)  13-Aug-2020 02:25:13
Local (UTC-5)  12-Aug-2020 21:25:13
 
METAR
KCPS 
25nm NE 
130153Z AUTO 14003KT 10SM CLR 23/22 A3001 RMK AO2 SLP159 T02330222 PNO $
KFAM 
26nm S 
130156Z AUTO 17003KT 10SM CLR 23/22 A3004 RMK AO2 SLP173 T02330222
KSUS 
30nm NW 
130154Z AUTO 11003KT 10SM CLR 26/19 A3001 RMK AO2 SLP155 T02560194
KPCD 
32nm SE 
130155Z AUTO 00000KT 10SM CLR 24/23 A3000 RMK AO2 T02350226
KSAR 
33nm E 
130200Z AUTO 10003KT 10SM SCT018 23/23 A3003 RMK AO2
KBLV 
33nm NE 
130156Z AUTO 00000KT 10SM CLR 23/22 A3000 RMK AO2 VIS 2 3/4 RWY32L SLP159 T02330224 $
KSTL 
33nm N 
130151Z 12004KT 10SM FEW035 FEW250 26/20 A3003 RMK AO2 SLP157 T02610200
KFYG 
37nm NW 
130135Z AUTO 09005KT 10SM -RA CLR 25/22 A3001 RMK AO2
KSET 
44nm N 
130154Z AUTO 10004KT 10SM CLR 25/22 A3001 RMK AO2 SLP157 T02500222
KALN 
45nm N 
130150Z VRB03KT 10SM SKC 23/23 A3003
TAF
KCPS 
25nm NE 
121725Z 1218/1318 13006KT P6SM VCTS SCT020 BKN035CB TEMPO 1218/1220 3SM TSRA BR OVC020CB FM122200 09004KT P6SM SCT035 FM130700 VRB03KT 3SM BR SCT035 FM131400 06005KT P6SM SCT035
KSUS 
30nm NW 
121725Z 1218/1318 13006KT 6SM HZ VCTS SCT020 BKN035CB FM122100 09004KT P6SM SCT035 TEMPO 1310/1314 3SM BR
NOTAMs
Click for the latest NOTAMs
NOTAMs are issued by the DoD/FAA and will open in a separate window not controlled by AirNav.

 

 
 

Would you like to see your business listed on this page?

 If your business provides an interesting product or service to pilots, flight crews, aircraft, or users of the Mercy Hospital Jefferson Heliport, you should consider listing it here.  To start the listing process, click on the button below
 
Add a business
 

Other Pages about Mercy Hospital Jefferson Heliport

Update a link
 
Copyright © AirNav, LLC. All rights reserved. Privacy Policy  Contact